Hoorn, Netherlands
Current Conditions -  °F | °C
As of 5:29 AM on Wednesday 22 Oct 2014 (Local Time) from EHKD Reporting Station
Broken Clouds Broken Clouds  
Wind Chill: 50°   Ceiling: 3000
Heat Index: 50°   Visibility: 6mi
Dew Point: 45°   Wind: 25mph
Humidity: 82%   Direction: 310°NW
Pressure: 29.88"   Gusts: 38mph
Location:  52.63°N, 5.07°E
Report Text: EHKD 220329Z AUTO 31022G33KT 9999 FEW020 SCT024 BKN030 10/07 Q1012 WHT
Loading
Personal Weather Stations






























Interactive Weather Map
Tropical Storm Tracking
New forecast layout! Learn more

10-Day Weather Forecast

Advertisements
Track Severe Weather on mobile